Time;durP1;ratioP1;P1;durP2;ratioP2;P2;SDS_P1;SDS_P2;PMS_P1;PMS_P2;Temp;Humidity;BMP_temperature;BMP_pressure;BME280_temperature;BME280_humidity;BME280_pressure;Samples;Min_cycle;Max_cycle;Signal;HPM_P1;HPM_P2
2022/03/20 00:01:09;;;;;;;;;4.50;3.50;;;;;11.59;32.72;102570.22;2450750;28;44766;-84
2022/03/20 00:02:20;;;;;;;;;3.50;3.50;;;;;11.57;32.64;102570.25;2444035;27;45441;-84
2022/03/20 00:03:31;;;;;;;;;4.25;2.00;;;;;11.59;32.70;102565.84;2445171;28;45512;-84
2022/03/20 00:04:42;;;;;;;;;3.00;3.00;;;;;11.56;32.99;102563.22;2450514;28;47073;-84
2022/03/20 00:05:52;;;;;;;;;6.50;6.50;;;;;11.56;32.38;102562.34;2451011;28;45349;-84
2022/03/20 00:07:03;;;;;;;;;5.00;4.25;;;;;11.53;32.84;102557.13;2445328;27;45487;-84
2022/03/20 00:08:14;;;;;;;;;4.00;4.00;;;;;11.52;33.13;102558.88;2441701;28;44589;-83
2022/03/20 00:09:25;;;;;;;;;2.00;1.50;;;;;11.52;33.59;102558.00;2441849;28;45468;-84
2022/03/20 00:10:42;;;;;;;;;3.75;3.75;;;;;11.52;33.44;102555.38;2443390;28;45291;-84
2022/03/20 00:11:53;;;;;;;;;6.25;5.00;;;;;11.51;32.79;102566.81;2440727;28;48047;-84
2022/03/20 00:13:15;;;;;;;;;5.00;4.75;;;;;11.50;33.47;102558.03;2449171;28;44602;-83
2022/03/20 00:14:25;;;;;;;;;4.50;4.50;;;;;11.51;33.63;102556.28;2445805;27;46294;-83
2022/03/20 00:15:40;;;;;;;;;5.25;5.00;;;;;11.48;33.39;102560.66;2441647;28;45165;-83
2022/03/20 00:16:50;;;;;;;;;6.00;5.00;;;;;11.50;33.21;102558.03;2450402;27;45299;-83
2022/03/20 00:18:01;;;;;;;;;4.75;4.75;;;;;11.46;33.42;102553.66;2451320;28;45423;-82
2022/03/20 00:19:11;;;;;;;;;6.00;4.75;;;;;11.43;33.22;102551.06;2448838;28;46196;-83
2022/03/20 00:20:21;;;;;;;;;6.75;4.75;;;;;11.42;33.34;102563.34;2441525;28;45228;-82
2022/03/20 00:21:32;;;;;;;;;4.00;4.00;;;;;11.40;32.84;102554.59;2441255;28;45494;-82
2022/03/20 00:22:42;;;;;;;;;4.75;4.75;;;;;11.39;32.93;102559.84;2441491;28;45402;-83
2022/03/20 00:23:53;;;;;;;;;5.75;4.00;;;;;11.33;33.28;102553.72;2441396;28;45356;-83
2022/03/20 00:25:03;;;;;;;;;5.75;5.00;;;;;11.34;33.49;102562.50;2441629;28;45200;-84
2022/03/20 00:26:16;;;;;;;;;5.50;4.25;;;;;11.31;33.07;102552.03;2441179;28;45670;-84
2022/03/20 00:27:27;;;;;;;;;7.75;6.00;;;;;11.31;33.20;102555.50;2441104;28;44621;-83
2022/03/20 00:28:37;;;;;;;;;6.00;6.00;;;;;11.30;33.41;102559.03;2440399;28;47215;-83
2022/03/20 00:29:47;;;;;;;;;3.00;2.00;;;;;11.28;33.64;102547.66;2441051;28;44603;-83
2022/03/20 00:30:58;;;;;;;;;3.25;3.25;;;;;11.30;33.20;102556.41;2441421;28;46490;-86
2022/03/20 00:32:10;;;;;;;;;6.00;4.75;;;;;11.29;33.31;102554.66;2441442;28;45256;-88
2022/03/20 00:33:22;;;;;;;;;5.25;4.25;;;;;11.28;33.71;102552.91;2441456;28;46464;-92
2022/03/20 00:34:33;;;;;;;;;4.00;4.00;;;;;11.27;33.67;102556.41;2440684;28;44760;-91
2022/03/20 00:35:43;;;;;;;;;0.00;0.00;;;;;11.28;33.21;102562.56;2443380;28;47448;-92
2022/03/20 00:36:54;;;;;;;;;5.00;5.00;;;;;11.24;32.72;102562.56;2440566;28;45235;-91
2022/03/20 00:38:06;;;;;;;;;5.00;5.00;;;;;11.19;33.30;102559.09;2440928;28;47519;-87
2022/03/20 00:39:17;;;;;;;;;3.75;3.50;;;;;11.19;33.09;102564.34;2450582;28;45330;-87
2022/03/20 00:40:27;;;;;;;;;5.00;4.00;;;;;11.18;33.36;102554.75;2444967;27;46298;-87
2022/03/20 00:41:37;;;;;;;;;4.75;4.00;;;;;11.15;33.34;102552.13;2441102;28;45235;-86
2022/03/20 00:42:48;;;;;;;;;3.25;3.00;;;;;11.13;33.06;102551.25;2441360;28;45169;-85
2022/03/20 00:43:59;;;;;;;;;2.50;2.50;;;;;11.11;33.41;102551.25;2441288;28;45317;-86
2022/03/20 00:45:09;;;;;;;;;5.25;3.00;;;;;11.11;33.18;102540.72;2441138;28;45452;-86
2022/03/20 00:46:19;;;;;;;;;5.00;4.75;;;;;11.08;33.12;102547.78;2440838;28;44705;-85
2022/03/20 00:47:30;;;;;;;;;4.00;4.00;;;;;11.07;33.18;102544.25;2450543;28;45295;-86
2022/03/20 00:48:41;;;;;;;;;3.25;3.00;;;;;11.06;33.33;102545.16;2443872;27;45432;-86
2022/03/20 00:49:51;;;;;;;;;6.00;4.50;;;;;11.05;33.67;102543.41;2441020;28;46157;-86
2022/03/20 00:51:05;;;;;;;;;5.00;3.50;;;;;11.05;33.03;102539.88;2441353;28;45370;-85
2022/03/20 00:52:15;;;;;;;;;3.25;3.25;;;;;11.03;33.84;102535.53;2440478;28;47016;-85
2022/03/20 00:53:26;;;;;;;;;3.25;2.00;;;;;11.05;33.76;102545.16;2446873;28;44785;-84
2022/03/20 00:54:36;;;;;;;;;3.25;3.00;;;;;11.05;33.75;102546.03;2448549;27;45405;-85
2022/03/20 00:55:47;;;;;;;;;3.00;2.00;;;;;11.06;33.89;102539.03;2441560;28;45155;-86
2022/03/20 00:56:58;;;;;;;;;2.50;2.50;;;;;11.05;33.50;102538.13;2441044;28;45270;-86
2022/03/20 00:58:10;;;;;;;;;6.50;4.00;;;;;11.05;33.41;102532.88;2440533;28;44755;-85
2022/03/20 00:59:20;;;;;;;;;5.25;4.00;;;;;11.02;33.96;102544.28;2440775;28;46326;-86
2022/03/20 01:00:32;;;;;;;;;3.25;3.00;;;;;10.99;33.23;102533.78;2441196;28;45393;-86
2022/03/20 01:01:43;;;;;;;;;3.00;3.00;;;;;10.98;33.77;102529.41;2441104;28;45292;-86
2022/03/20 01:02:54;;;;;;;;;4.75;3.00;;;;;11.00;33.87;102543.44;2441313;28;44643;-86
2022/03/20 01:04:04;;;;;;;;;4.00;3.00;;;;;10.98;33.86;102536.44;2441178;28;45303;-86
2022/03/20 01:05:15;;;;;;;;;4.25;4.25;;;;;10.97;34.37;102537.28;2449894;28;45247;-87
2022/03/20 01:06:25;;;;;;;;;3.25;2.75;;;;;10.97;33.46;102540.81;2448854;28;45512;-87
2022/03/20 01:07:36;;;;;;;;;6.50;4.00;;;;;10.94;33.71;102537.34;2449029;28;45227;-88
2022/03/20 01:08:46;;;;;;;;;3.50;2.50;;;;;10.93;34.16;102541.72;2446254;27;45362;-87
2022/03/20 01:09:57;;;;;;;;;4.00;4.00;;;;;10.95;34.37;102545.22;2442142;28;45158;-87
2022/03/20 01:11:08;;;;;;;;;4.75;2.75;;;;;10.95;34.33;102537.31;2449778;28;47173;-88
2022/03/20 01:12:18;;;;;;;;;4.25;3.50;;;;;10.93;33.71;102530.31;2434734;28;45532;-88
2022/03/20 01:13:29;;;;;;;;;4.50;4.25;;;;;10.94;34.12;102535.56;2440982;28;47380;-88
2022/03/20 01:14:40;;;;;;;;;4.00;3.25;;;;;10.91;33.97;102525.91;2433333;28;45461;-86
2022/03/20 01:15:50;;;;;;;;;5.75;4.00;;;;;10.91;34.58;102527.69;2445967;27;47519;-87
2022/03/20 01:17:01;;;;;;;;;4.25;3.00;;;;;10.90;33.82;102533.84;2452814;27;44852;-85
2022/03/20 01:18:11;;;;;;;;;3.75;3.75;;;;;10.91;33.95;102530.34;2441059;28;45360;-88
2022/03/20 01:19:23;;;;;;;;;6.00;4.50;;;;;10.88;33.90;102522.44;2440440;28;45397;-88
2022/03/20 01:20:34;;;;;;;;;6.75;4.00;;;;;10.87;33.56;102526.81;2440340;28;46332;-87
2022/03/20 01:21:44;;;;;;;;;3.25;3.25;;;;;10.86;34.26;102521.59;2441236;28;45165;-90
2022/03/20 01:22:54;;;;;;;;;2.25;2.25;;;;;10.84;33.67;102520.72;2440998;28;45353;-87
2022/03/20 01:24:05;;;;;;;;;4.25;4.25;;;;;10.85;34.76;102523.34;2440484;28;45270;-91
2022/03/20 01:25:17;;;;;;;;;8.50;5.50;;;;;10.85;34.62;102519.81;2447614;28;46302;-86
2022/03/20 01:26:29;;;;;;;;;5.00;4.00;;;;;10.83;34.38;102526.84;2447529;27;45235;-84
2022/03/20 01:27:39;;;;;;;;;3.75;3.75;;;;;10.82;34.57;102520.72;2440951;28;46237;-84
2022/03/20 01:28:49;;;;;;;;;3.00;3.00;;;;;10.79;34.31;102524.22;2441098;28;45283;-84
2022/03/20 01:30:00;;;;;;;;;6.00;5.25;;;;;10.80;34.22;102510.22;2440975;28;45330;-84
2022/03/20 01:31:10;;;;;;;;;4.50;3.00;;;;;10.79;33.99;102516.34;2441115;28;45299;-84
2022/03/20 01:32:21;;;;;;;;;4.00;3.00;;;;;10.76;34.07;102507.59;2448264;28;45373;-84
2022/03/20 01:33:31;;;;;;;;;2.00;2.00;;;;;10.77;34.45;102515.47;2444572;27;45320;-84
2022/03/20 01:34:41;;;;;;;;;3.00;3.00;;;;;10.76;34.41;102512.88;2440786;28;45349;-84
2022/03/20 01:35:52;;;;;;;;;7.75;5.25;;;;;10.73;34.42;102508.50;2441173;28;44771;-84
2022/03/20 01:37:03;;;;;;;;;4.50;4.50;;;;;10.72;34.47;102505.88;2441236;28;45360;-84
2022/03/20 01:38:20;;;;;;;;;5.00;5.00;;;;;10.71;33.85;102515.53;2443461;28;45240;-84
2022/03/20 01:39:30;;;;;;;;;5.00;5.00;;;;;10.70;33.96;102513.75;2450826;28;45373;-84
2022/03/20 01:40:41;;;;;;;;;7.00;4.75;;;;;10.67;34.05;102511.13;2440629;28;45453;-83
2022/03/20 01:41:51;;;;;;;;;7.00;4.00;;;;;10.63;34.08;102507.66;2445489;28;46522;-84
2022/03/20 01:43:03;;;;;;;;;3.00;3.00;;;;;10.62;33.63;102510.31;2450076;28;44685;-84
2022/03/20 01:44:13;;;;;;;;;4.75;4.75;;;;;10.59;33.84;102511.19;2452878;27;46932;-83
2022/03/20 01:45:25;;;;;;;;;5.00;5.00;;;;;10.53;33.94;102506.84;2457417;27;44650;-83
2022/03/20 01:46:35;;;;;;;;;3.00;3.00;;;;;10.54;34.63;102512.97;2448924;27;46540;-84
2022/03/20 01:47:47;;;;;;;;;6.00;6.00;;;;;10.53;34.73;102503.31;2441110;28;45211;-84
2022/03/20 01:48:57;;;;;;;;;3.50;3.50;;;;;10.51;35.00;102508.59;2440841;28;45637;-83
2022/03/20 01:50:08;;;;;;;;;4.25;4.25;;;;;10.50;34.67;102506.81;2440864;28;45310;-83
2022/03/20 01:52:10;;;;;;;;;5.25;5.00;;;;;10.52;34.35;102514.75;2440917;28;46289;-83
2022/03/20 01:52:51;;;;;;;;;6.25;5.25;;;;;10.47;34.48;102505.06;2440845;28;44701;-83
2022/03/20 01:54:01;;;;;;;;;4.00;4.00;;;;;10.46;34.74;102502.44;2445950;28;45381;-83
2022/03/20 01:55:12;;;;;;;;;6.50;5.00;;;;;10.46;34.41;102497.19;2444035;27;44745;-84
2022/03/20 01:56:23;;;;;;;;;5.50;4.00;;;;;10.43;34.20;102499.81;2440689;28;45474;-83
2022/03/20 01:57:37;;;;;;;;;3.75;3.75;;;;;10.40;34.54;102497.19;2440827;28;45428;-83
2022/03/20 01:58:47;;;;;;;;;8.00;4.75;;;;;10.39;34.65;102488.47;2439894;28;46599;-84
2022/03/20 01:59:58;;;;;;;;;4.00;4.00;;;;;10.34;34.31;102485.84;2440396;28;45178;-84
2022/03/20 02:01:08;;;;;;;;;4.00;4.00;;;;;10.32;34.51;102492.84;2440725;28;45369;-84
2022/03/20 02:02:22;;;;;;;;;4.50;4.50;;;;;10.30;34.46;102497.25;2441068;28;45466;-84
2022/03/20 02:03:32;;;;;;;;;5.00;5.00;;;;;10.28;34.53;102491.13;2440724;28;45498;-84
2022/03/20 02:04:43;;;;;;;;;5.25;5.00;;;;;10.26;35.04;102486.75;2440964;28;45262;-83
2022/03/20 02:05:53;;;;;;;;;3.50;3.50;;;;;10.23;34.85;102487.63;2439255;28;47239;-83
2022/03/20 02:07:06;;;;;;;;;4.25;4.25;;;;;10.26;35.67;102492.88;2440222;28;44772;-83
2022/03/20 02:08:16;;;;;;;;;4.00;4.00;;;;;10.23;35.10;102487.63;2440656;28;45525;-83
2022/03/20 02:09:27;;;;;;;;;4.00;4.00;;;;;10.21;34.91;102487.66;2440052;28;45231;-84
2022/03/20 02:10:38;;;;;;;;;6.00;5.00;;;;;10.21;35.18;102489.38;2443750;28;45504;-84
2022/03/20 02:11:49;;;;;;;;;8.25;4.00;;;;;10.20;35.30;102487.63;2442091;27;44774;-84
2022/03/20 02:12:59;;;;;;;;;3.75;3.00;;;;;10.19;35.42;102491.16;2441945;28;46212;-92
2022/03/20 02:14:10;;;;;;;;;4.25;3.00;;;;;10.16;35.00;102481.53;2449268;28;45176;-88
2022/03/20 02:15:20;;;;;;;;;3.25;2.50;;;;;10.13;34.93;102477.16;2440395;28;46019;-88
2022/03/20 02:16:31;;;;;;;;;4.50;4.00;;;;;10.10;35.19;102468.41;2449207;27;45240;-86
2022/03/20 02:17:43;;;;;;;;;3.00;3.00;;;;;10.09;35.47;102475.44;2440723;28;45330;-86
2022/03/20 02:18:54;;;;;;;;;3.50;3.50;;;;;10.08;35.52;102470.16;2440874;28;45442;-86
2022/03/20 02:20:08;;;;;;;;;5.00;3.50;;;;;10.07;35.37;102461.41;2441668;28;45296;-86
2022/03/20 02:21:39;;;;;;;;;5.75;5.75;;;;;10.05;35.34;102473.66;2442596;28;45259;-85
2022/03/20 02:22:50;;;;;;;;;5.00;5.00;;;;;10.06;35.53;102472.78;2441417;28;47100;-85
2022/03/20 02:24:01;;;;;;;;;6.50;5.00;;;;;10.01;35.23;102469.31;2442078;28;44689;-85
2022/03/20 02:25:14;;;;;;;;;5.00;4.25;;;;;10.01;35.51;102470.19;2445695;28;46310;-85
2022/03/20 02:26:25;;;;;;;;;6.00;5.50;;;;;10.00;35.16;102464.94;2442459;27;45149;-85
2022/03/20 02:27:39;;;;;;;;;4.75;4.75;;;;;9.96;35.91;102464.06;2448103;28;46259;-91
2022/03/20 02:28:49;;;;;;;;;4.00;4.00;;;;;9.93;35.33;102453.56;2452509;27;45260;-92
2022/03/20 02:30:02;;;;;;;;;5.00;4.75;;;;;9.93;35.68;102457.94;2452363;27;46462;-90
2022/03/20 02:31:13;;;;;;;;;6.00;4.50;;;;;9.92;35.69;102458.81;2451487;27;45357;-85
2022/03/20 02:32:34;;;;;;;;;5.75;4.75;;;;;9.88;35.76;102455.31;2448824;28;45348;-84
2022/03/20 02:33:45;;;;;;;;;7.50;5.00;;;;;9.85;35.83;102461.44;2445829;28;45417;-85
2022/03/20 02:35:03;;;;;;;;;6.00;4.00;;;;;9.84;35.46;102456.22;2449930;28;45373;-88
2022/03/20 02:36:14;;;;;;;;;6.00;4.50;;;;;9.82;35.85;102458.84;2451960;28;45215;-86
2022/03/20 02:37:25;;;;;;;;;6.25;5.75;;;;;9.77;35.51;102451.00;2442360;28;45267;-88
2022/03/20 02:38:35;;;;;;;;;5.25;4.50;;;;;9.77;35.99;102450.09;2441516;28;45236;-85
2022/03/20 02:39:47;;;;;;;;;6.75;5.75;;;;;9.72;35.81;102447.50;2441616;28;46116;-82
2022/03/20 02:41:00;;;;;;;;;5.50;5.50;;;;;9.70;36.00;102437.88;2442493;28;45229;-82
2022/03/20 02:42:11;;;;;;;;;4.00;3.00;;;;;9.67;35.71;102439.63;2444839;28;45303;-82
2022/03/20 02:43:29;;;;;;;;;5.75;5.25;;;;;9.64;35.97;102442.25;2451787;27;44826;-82
2022/03/20 02:45:00;;;;;;;;;5.00;4.50;;;;;9.65;36.00;102451.88;2445797;28;46376;-82
2022/03/20 02:46:10;;;;;;;;;4.25;4.25;;;;;9.60;36.51;102440.50;2442415;28;45333;-82
2022/03/20 02:47:23;;;;;;;;;4.00;3.00;;;;;9.62;36.25;102445.75;2442126;28;45593;-81
2022/03/20 02:48:38;;;;;;;;;6.50;6.00;;;;;9.58;36.36;102442.25;2442278;28;45449;-82
2022/03/20 02:50:19;;;;;;;;;5.00;5.00;;;;;9.56;36.40;102444.00;2442016;28;45511;-82
2022/03/20 02:51:29;;;;;;;;;5.00;5.00;;;;;9.52;36.20;102445.75;2442405;28;45293;-82
2022/03/20 02:52:51;;;;;;;;;5.00;5.00;;;;;9.53;36.62;102447.50;2442182;28;46299;-82
2022/03/20 02:54:03;;;;;;;;;6.25;5.25;;;;;9.50;36.68;102446.63;2442406;28;45377;-82
2022/03/20 02:55:19;;;;;;;;;4.75;4.75;;;;;9.48;36.46;102446.66;2442274;28;45445;-81
2022/03/20 02:56:29;;;;;;;;;3.00;3.00;;;;;9.49;36.83;102447.50;2445224;28;45160;-82
2022/03/20 02:57:40;;;;;;;;;3.00;3.00;;;;;9.47;36.63;102441.38;2450951;28;45312;-82
2022/03/20 02:58:51;;;;;;;;;9.00;5.00;;;;;9.42;36.64;102442.28;2446634;27;45311;-82
2022/03/20 03:00:05;;;;;;;;;7.00;5.00;;;;;9.41;36.40;102443.13;2443484;28;46537;-82
2022/03/20 03:01:16;;;;;;;;;6.75;5.00;;;;;9.38;36.58;102435.28;2451279;28;45278;-82
2022/03/20 03:02:30;;;;;;;;;5.75;5.75;;;;;9.35;37.21;102440.53;2451161;28;45259;-85
2022/03/20 03:03:45;;;;;;;;;5.00;4.75;;;;;9.33;36.85;102430.00;2451941;28;45361;-85
2022/03/20 03:04:59;;;;;;;;;6.00;4.00;;;;;9.33;36.98;102437.03;2449819;27;45514;-85
2022/03/20 03:06:09;;;;;;;;;6.00;5.00;;;;;9.32;36.88;102436.16;2442257;28;45342;-85
2022/03/20 03:07:20;;;;;;;;;8.00;6.50;;;;;9.29;37.19;102432.63;2449793;28;46345;-85
2022/03/20 03:11:28;;;;;;;;;8.00;6.25;;;;;9.20;37.25;102431.78;2448853;28;45583;-83
2022/03/20 03:12:39;;;;;;;;;7.75;7.75;;;;;9.19;37.78;102432.66;2442099;28;46284;-84
2022/03/20 03:13:49;;;;;;;;;6.00;4.75;;;;;9.21;37.46;102433.50;2449417;28;44769;-84
2022/03/20 03:16:28;;;;;;;;;4.00;4.00;;;;;9.19;37.49;102434.38;2452577;27;44750;-82
2022/03/20 03:17:39;;;;;;;;;6.00;6.00;;;;;9.15;37.43;102430.91;2441950;28;45693;-82
2022/03/20 03:18:49;;;;;;;;;5.00;4.75;;;;;9.14;37.81;102434.38;2442011;28;45451;-82
2022/03/20 03:20:00;;;;;;;;;4.00;4.00;;;;;9.10;37.58;102422.16;2441684;28;46559;-82
2022/03/20 03:21:12;;;;;;;;;6.50;6.00;;;;;9.06;37.65;102426.50;2442089;28;44610;-81
2022/03/20 03:22:26;;;;;;;;;5.00;3.75;;;;;9.07;38.10;102428.28;2441871;28;45713;-81
2022/03/20 03:23:37;;;;;;;;;7.50;4.75;;;;;9.02;37.72;102418.63;2441992;28;45223;-81
2022/03/20 03:24:47;;;;;;;;;3.75;3.75;;;;;9.03;37.98;102431.78;2442093;28;46087;-80
2022/03/20 03:25:58;;;;;;;;;6.25;4.50;;;;;9.00;38.54;102419.53;2441761;28;44621;-80
2022/03/20 03:27:08;;;;;;;;;5.75;4.50;;;;;9.01;38.84;102428.28;2445892;28;45518;-80
2022/03/20 03:28:19;;;;;;;;;6.50;6.50;;;;;8.99;38.47;102425.63;2451727;27;45378;-80
2022/03/20 03:29:29;;;;;;;;;4.75;4.00;;;;;9.00;38.33;102430.03;2451675;27;45330;-80
2022/03/20 03:30:43;;;;;;;;;4.00;3.25;;;;;9.00;38.80;102435.28;2451557;27;45322;-80
2022/03/20 03:31:54;;;;;;;;;3.75;3.25;;;;;9.00;38.74;102424.78;2451506;27;45311;-80
2022/03/20 03:33:04;;;;;;;;;6.50;5.50;;;;;9.04;38.45;102430.88;2451759;27;45243;-80
2022/03/20 03:35:51;;;;;;;;;7.25;5.00;;;;;9.00;38.43;102430.03;2443385;28;45189;-81
2022/03/20 03:37:01;;;;;;;;;6.75;5.75;;;;;8.96;38.25;102420.38;2442847;28;45283;-85
2022/03/20 03:38:13;;;;;;;;;5.25;5.25;;;;;8.98;39.26;102426.53;2441086;28;45189;-85
2022/03/20 03:39:23;;;;;;;;;7.50;7.00;;;;;8.96;38.93;102422.16;2441300;28;45631;-89
2022/03/20 03:40:34;;;;;;;;;7.00;6.50;;;;;8.94;38.97;102413.41;2441183;28;45275;-90
2022/03/20 03:41:44;;;;;;;;;7.50;6.00;;;;;8.96;38.56;102422.16;2444901;27;47540;-92
2022/03/20 03:42:55;;;;;;;;;5.75;4.50;;;;;8.92;38.99;102421.25;2451164;28;45255;-89
2022/03/20 03:44:05;;;;;;;;;3.00;3.00;;;;;8.89;38.97;102426.50;2443268;28;45469;-90
2022/03/20 03:45:16;;;;;;;;;6.50;6.50;;;;;8.88;38.85;102424.75;2443557;28;44864;-90
2022/03/20 03:46:26;;;;;;;;;5.25;4.50;;;;;8.89;38.69;102418.63;2441097;28;46355;-91
2022/03/20 03:47:37;;;;;;;;;3.50;3.50;;;;;8.88;39.49;102420.41;2441342;28;45245;-90
2022/03/20 03:48:47;;;;;;;;;6.50;6.50;;;;;8.88;39.23;102414.28;2448122;28;45340;-90
2022/03/20 03:49:58;;;;;;;;;5.00;4.00;;;;;8.89;39.25;102416.00;2450735;28;44742;-91
2022/03/20 03:51:08;;;;;;;;;5.00;5.00;;;;;8.88;39.34;102416.91;2443953;28;47276;-91
2022/03/20 03:52:19;;;;;;;;;4.00;4.00;;;;;8.85;39.24;102423.00;2443988;28;45288;-93
2022/03/20 03:53:29;;;;;;;;;6.50;4.75;;;;;8.84;39.15;102420.41;2453690;27;47205;-91
2022/03/20 03:54:41;;;;;;;;;6.00;5.00;;;;;8.84;39.26;102425.63;2449270;28;45251;-89
2022/03/20 03:55:52;;;;;;;;;5.00;5.00;;;;;8.83;39.43;102419.50;2441214;28;45346;-89
2022/03/20 03:57:02;;;;;;;;;5.50;5.00;;;;;8.83;39.98;102421.25;2441407;28;45166;-87
2022/03/20 03:58:14;;;;;;;;;7.00;6.00;;;;;8.85;39.55;102425.63;2440841;28;47212;-88
2022/03/20 03:59:25;;;;;;;;;9.00;4.25;;;;;8.81;39.36;102418.63;2442574;28;45413;-87
2022/03/20 04:00:35;;;;;;;;;6.50;6.50;;;;;8.80;39.68;102416.00;2450118;28;46541;-87
2022/03/20 04:01:46;;;;;;;;;5.00;4.75;;;;;8.78;39.59;102432.63;2458745;27;45242;-88
2022/03/20 04:02:56;;;;;;;;;7.00;5.00;;;;;8.76;39.69;102423.88;2441123;28;45257;-88
2022/03/20 04:04:07;;;;;;;;;6.00;5.00;;;;;8.80;40.11;102426.47;2441717;28;45243;-90
2022/03/20 04:05:17;;;;;;;;;7.00;6.00;;;;;8.81;39.45;102423.00;2443683;28;45415;-88
2022/03/20 04:06:27;;;;;;;;;6.00;6.00;;;;;8.78;39.39;102424.75;2451653;28;45195;-84
2022/03/20 04:07:38;;;;;;;;;7.75;6.00;;;;;8.75;40.41;102424.75;2441555;28;45579;-83
2022/03/20 04:08:49;;;;;;;;;6.75;4.75;;;;;8.74;40.08;102420.34;2441692;28;45438;-83
2022/03/20 04:10:01;;;;;;;;;9.25;6.00;;;;;8.74;40.35;102428.22;2441392;28;46368;-84
2022/03/20 04:11:13;;;;;;;;;6.00;5.50;;;;;8.74;39.76;102428.22;2449928;28;44676;-84
2022/03/20 04:12:23;;;;;;;;;7.00;5.50;;;;;8.73;40.23;102422.97;2442000;28;45425;-84
2022/03/20 04:13:35;;;;;;;;;5.75;5.75;;;;;8.73;40.53;102422.97;2443332;28;44803;-87
2022/03/20 04:14:46;;;;;;;;;4.50;4.00;;;;;8.74;40.43;102432.63;2441920;28;46321;-87
2022/03/20 04:15:56;;;;;;;;;6.50;5.50;;;;;8.74;40.88;102427.38;2445434;27;44549;-86
2022/03/20 04:17:06;;;;;;;;;8.25;5.50;;;;;8.71;40.77;102417.75;2437840;28;48151;-84
2022/03/20 04:18:17;;;;;;;;;5.25;4.00;;;;;8.70;40.82;102418.59;2443557;28;45249;-87
2022/03/20 04:19:27;;;;;;;;;10.00;6.50;;;;;8.71;40.87;102422.09;2447871;28;46267;-85
2022/03/20 04:20:37;;;;;;;;;7.50;7.50;;;;;8.70;40.48;102421.22;2440713;28;45237;-85
2022/03/20 04:21:48;;;;;;;;;6.25;5.00;;;;;8.65;39.99;102428.19;2433540;28;47157;-85
2022/03/20 04:24:28;;;;;;;;;5.00;5.00;;;;;8.60;41.04;102420.34;2441464;28;45295;-85
2022/03/20 04:25:41;;;;;;;;;7.25;7.25;;;;;8.59;40.59;102421.22;2442125;28;45166;-85
2022/03/20 04:26:53;;;;;;;;;12.00;8.25;;;;;8.60;40.92;102419.44;2443459;28;48179;-85
2022/03/20 04:28:05;;;;;;;;;9.50;6.00;;;;;8.57;41.13;102419.44;2442985;28;45349;-87
2022/03/20 04:29:15;;;;;;;;;7.25;4.25;;;;;8.55;40.71;102422.91;2440926;28;46179;-88
2022/03/20 04:30:26;;;;;;;;;9.00;8.00;;;;;8.53;40.77;102419.41;2448191;28;45161;-89
2022/03/20 04:31:37;;;;;;;;;7.25;6.50;;;;;8.53;40.50;102416.78;2451180;28;45421;-89
2022/03/20 04:32:47;;;;;;;;;9.75;8.25;;;;;8.51;41.08;102415.03;2451364;27;44527;-89
2022/03/20 04:33:58;;;;;;;;;7.00;6.25;;;;;8.54;41.35;102422.91;2451153;27;45250;-89
2022/03/20 04:35:08;;;;;;;;;10.00;8.00;;;;;8.53;40.98;102418.53;2444228;27;45177;-89
2022/03/20 04:36:23;;;;;;;;;11.00;10.00;;;;;8.51;41.14;102415.03;2441312;28;45469;-89
2022/03/20 04:37:34;;;;;;;;;9.75;7.00;;;;;8.50;41.21;102414.16;2441540;28;45218;-89
2022/03/20 04:38:44;;;;;;;;;8.75;6.25;;;;;8.49;41.01;102411.53;2440760;28;48238;-90
2022/03/20 04:39:54;;;;;;;;;10.00;8.00;;;;;8.49;40.76;102412.44;2447026;28;45231;-87
2022/03/20 04:41:05;;;;;;;;;8.75;8.50;;;;;8.48;40.69;102418.53;2450522;28;45427;-86
2022/03/20 04:42:15;;;;;;;;;9.75;9.00;;;;;8.45;41.07;102408.03;2449975;27;44592;-89
2022/03/20 04:43:27;;;;;;;;;9.50;9.50;;;;;8.43;41.23;102407.16;2446825;27;45353;-88
2022/03/20 04:44:40;;;;;;;;;6.50;6.50;;;;;8.43;41.15;102407.16;2440451;28;45310;-88
2022/03/20 04:45:51;;;;;;;;;7.50;7.25;;;;;8.42;41.50;102408.03;2433943;28;47642;-88
2022/03/20 04:47:01;;;;;;;;;6.25;6.00;;;;;8.41;41.79;102403.66;2439615;28;44685;-88
2022/03/20 04:58:35;;;;;;;;;10.00;9.00;;;;;8.40;42.28;102399.28;2441333;28;44531;-88
2022/03/20 04:59:45;;;;;;;;;10.75;10.00;;;;;8.39;42.10;102400.16;2441178;28;46170;-86
2022/03/20 05:00:56;;;;;;;;;10.25;8.50;;;;;8.40;42.28;102401.88;2441440;28;44590;-88
2022/03/20 05:02:07;;;;;;;;;10.00;8.25;;;;;8.37;42.12;102402.75;2447400;28;47543;-87
2022/03/20 05:03:18;;;;;;;;;11.50;8.75;;;;;8.36;42.23;102398.41;2450561;28;45359;-84
2022/03/20 05:04:28;;;;;;;;;9.50;9.00;;;;;8.35;42.29;102398.38;2449656;28;47106;-83
2022/03/20 05:05:38;;;;;;;;;12.25;10.50;;;;;8.33;42.10;102401.88;2440818;28;44592;-85
2022/03/20 05:06:49;;;;;;;;;10.75;9.25;;;;;8.31;41.92;102398.38;2441373;28;45270;-84
2022/03/20 05:07:59;;;;;;;;;13.00;11.25;;;;;8.31;41.91;102403.63;2441267;28;45412;-84
2022/03/20 05:13:37;;;;;;;;;13.25;11.00;;;;;8.27;42.11;102403.63;2448425;28;45191;-88
2022/03/20 05:14:48;;;;;;;;;11.75;9.75;;;;;8.25;42.00;102398.34;2445404;27;46512;-89
2022/03/20 05:15:58;;;;;;;;;13.50;11.25;;;;;8.25;42.14;102400.13;2445618;27;45216;-88
2022/03/20 05:17:09;;;;;;;;;10.75;9.00;;;;;8.27;42.34;102401.84;2440914;27;46337;-88
2022/03/20 05:18:19;;;;;;;;;13.75;7.25;;;;;8.25;42.59;102403.59;2456169;27;45375;-88
2022/03/20 05:19:33;;;;;;;;;10.00;8.50;;;;;8.24;42.39;102398.34;2454662;27;45315;-87
2022/03/20 05:20:43;;;;;;;;;10.50;9.75;;;;;8.27;42.78;102408.84;2441152;28;45346;-88
2022/03/20 05:21:54;;;;;;;;;9.75;9.75;;;;;8.24;42.67;102412.34;2440890;28;46153;-87
2022/03/20 05:23:05;;;;;;;;;10.25;9.25;;;;;8.24;42.24;102409.72;2444215;28;45243;-87
2022/03/20 05:24:16;;;;;;;;;10.00;10.00;;;;;8.22;42.18;102409.69;2441498;28;45989;-87
2022/03/20 05:25:28;;;;;;;;;12.25;10.75;;;;;8.22;42.63;102406.22;2449279;27;45161;-87
2022/03/20 05:26:42;;;;;;;;;10.00;9.25;;;;;8.18;42.51;102407.94;2447415;27;45171;-86
2022/03/20 05:27:52;;;;;;;;;11.75;9.00;;;;;8.17;42.81;102398.31;2441128;28;45295;-86
2022/03/20 05:29:03;;;;;;;;;11.00;9.75;;;;;8.21;42.83;102415.81;2450350;28;45355;-86
2022/03/20 05:30:13;;;;;;;;;9.25;9.00;;;;;8.17;42.88;102406.16;2450910;27;45386;-86
2022/03/20 05:31:23;;;;;;;;;13.25;9.75;;;;;8.18;43.12;102412.28;2450619;27;45406;-86
2022/03/20 05:32:37;;;;;;;;;13.00;10.25;;;;;8.15;42.62;102407.91;2450999;27;45226;-84
2022/03/20 05:33:47;;;;;;;;;10.25;8.75;;;;;8.15;43.29;102407.91;2447031;27;45657;-82
2022/03/20 05:34:58;;;;;;;;;11.75;10.75;;;;;8.16;43.23;102414.03;2441318;28;45259;-88
2022/03/20 05:36:09;;;;;;;;;11.50;9.75;;;;;8.14;43.21;102413.16;2440852;28;45390;-87
2022/03/20 05:37:19;;;;;;;;;9.75;9.50;;;;;8.10;43.29;102410.53;2441111;28;45248;-88
2022/03/20 05:38:30;;;;;;;;;10.50;9.00;;;;;8.08;43.15;102406.13;2440854;28;45417;-88
2022/03/20 05:39:41;;;;;;;;;8.00;7.50;;;;;8.09;43.39;102407.91;2443496;28;45449;-88
2022/03/20 05:41:43;;;;;;;;;8.50;7.50;;;;;8.08;43.00;102406.13;2452758;27;47169;-88
2022/03/20 05:42:21;;;;;;;;;10.75;9.00;;;;;8.03;43.55;102402.63;2454438;27;45265;-87
2022/03/20 05:43:32;;;;;;;;;12.75;10.00;;;;;8.04;43.48;102400.03;2449807;28;48238;-87
2022/03/20 05:44:46;;;;;;;;;10.00;9.75;;;;;8.02;42.83;102401.78;2448288;28;45349;-86
2022/03/20 05:45:58;;;;;;;;;11.00;10.25;;;;;8.03;43.44;102400.00;2440995;28;45631;-86
2022/03/20 05:47:08;;;;;;;;;10.50;9.00;;;;;7.99;43.24;102396.50;2449016;28;45280;-89
2022/03/20 05:48:18;;;;;;;;;9.25;8.00;;;;;7.97;43.33;102399.13;2450157;28;45999;-90
2022/03/20 05:49:29;;;;;;;;;14.00;11.00;;;;;7.94;43.36;102403.47;2448890;28;44697;-92
2022/03/20 05:50:39;;;;;;;;;10.25;9.25;;;;;7.94;43.72;102401.72;2440505;28;45362;-91
2022/03/20 05:51:51;;;;;;;;;9.75;9.50;;;;;7.92;43.19;102402.59;2447669;28;44750;-90
2022/03/20 05:53:02;;;;;;;;;10.50;7.25;;;;;7.93;43.84;102399.97;2446343;28;46151;-90
2022/03/20 05:54:15;;;;;;;;;10.75;8.00;;;;;7.92;43.48;102398.22;2441283;28;45256;-89
2022/03/20 05:58:23;;;;;;;;;11.00;10.00;;;;;7.90;43.68;102386.00;2442504;28;45732;-85
2022/03/20 05:59:35;;;;;;;;;10.50;7.75;;;;;7.92;43.80;102384.25;2442542;28;45166;-84
2022/03/20 06:00:45;;;;;;;;;12.00;10.00;;;;;7.91;43.85;102390.34;2441704;28;47117;-85